Time;durP1;ratioP1;P1;durP2;ratioP2;P2;SDS_P1;SDS_P2;PMS_P1;PMS_P2;Temp;Humidity;BMP_temperature;BMP_pressure;BME280_temperature;BME280_humidity;BME280_pressure;Samples;Min_cycle;Max_cycle;Signal;HPM_P1;HPM_P2
2021/01/24 00:01:05;;;;;;;22.35;14.13;;;;;;;-146.38;100.00;60817.44;982732;30;20038;-47
2021/01/24 00:02:34;;;;;;;24.40;15.93;;;;;;;-146.38;100.00;60817.44;984335;30;20047;-47
2021/01/24 00:04:03;;;;;;;18.83;14.52;;;;;;;-146.38;100.00;60817.44;983277;30;20162;-47
2021/01/24 00:05:32;;;;;;;20.67;13.23;;;;;;;-146.38;100.00;60817.44;982370;30;20405;-49
2021/01/24 00:07:01;;;;;;;18.40;14.15;;;;;;;-146.38;100.00;60817.44;984650;30;20077;-47
2021/01/24 00:08:30;;;;;;;18.55;14.07;;;;;;;-146.38;100.00;60817.44;984571;30;20130;-47
2021/01/24 00:09:59;;;;;;;19.50;13.25;;;;;;;-146.38;100.00;60817.44;986206;30;20461;-47
2021/01/24 00:11:28;;;;;;;21.45;13.68;;;;;;;-146.38;100.00;60817.44;986234;30;20134;-48
2021/01/24 00:12:57;;;;;;;19.90;13.85;;;;;;;-146.38;100.00;60817.44;986189;30;20124;-51
2021/01/24 00:14:26;;;;;;;18.45;14.60;;;;;;;-146.38;100.00;60817.44;986170;30;20370;-49
2021/01/24 00:15:55;;;;;;;17.92;13.60;;;;;;;-146.38;100.00;60817.44;986297;30;20101;-49
2021/01/24 00:17:24;;;;;;;19.25;13.45;;;;;;;-146.38;100.00;60817.44;986263;30;20070;-48
2021/01/24 00:18:53;;;;;;;17.85;11.80;;;;;;;-146.38;100.00;60817.44;986035;30;20482;-47
2021/01/24 00:20:22;;;;;;;16.40;12.25;;;;;;;-146.38;100.00;60817.44;986096;30;20065;-48
2021/01/24 00:21:51;;;;;;;18.35;12.82;;;;;;;-146.38;100.00;60817.44;986043;30;20039;-51
2021/01/24 00:23:20;;;;;;;17.60;12.55;;;;;;;-146.38;100.00;60817.44;986205;30;20036;-48
2021/01/24 00:24:49;;;;;;;17.98;12.65;;;;;;;-146.38;100.00;60817.44;986099;30;20038;-49
2021/01/24 00:26:18;;;;;;;16.02;11.48;;;;;;;-146.38;100.00;60817.44;986177;30;20035;-49
2021/01/24 00:27:47;;;;;;;15.75;11.32;;;;;;;-146.38;100.00;60817.44;985606;30;20463;-49
2021/01/24 00:29:16;;;;;;;16.30;11.57;;;;;;;-146.38;100.00;60817.44;986139;30;20119;-48
2021/01/24 00:30:45;;;;;;;14.45;10.98;;;;;;;-146.38;100.00;60817.44;986133;30;20039;-46
2021/01/24 00:32:14;;;;;;;15.40;10.77;;;;;;;-146.38;100.00;60817.44;986164;30;20401;-48
2021/01/24 00:33:42;;;;;;;16.45;10.73;;;;;;;-146.38;100.00;60817.44;985686;30;20027;-50
2021/01/24 00:35:11;;;;;;;12.80;10.55;;;;;;;-146.38;100.00;60817.44;985787;30;20115;-47
2021/01/24 00:36:40;;;;;;;12.77;9.82;;;;;;;-146.38;100.00;60817.44;986035;30;20039;-48
2021/01/24 00:38:10;;;;;;;12.75;9.30;;;;;;;-146.38;100.00;60817.44;986153;30;20035;-47
2021/01/24 00:39:39;;;;;;;16.45;9.75;;;;;;;-146.38;100.00;60817.44;986092;30;20097;-46
2021/01/24 00:41:08;;;;;;;12.48;9.32;;;;;;;-146.38;100.00;60817.44;986182;30;20122;-47
2021/01/24 00:42:37;;;;;;;13.82;9.43;;;;;;;-146.38;100.00;60817.44;985820;30;20047;-47
2021/01/24 00:44:06;;;;;;;15.43;9.57;;;;;;;-146.38;100.00;60817.44;985836;30;20067;-46
2021/01/24 00:45:35;;;;;;;12.93;8.77;;;;;;;-146.38;100.00;60817.44;986492;30;20081;-49
2021/01/24 00:47:05;;;;;;;12.40;8.75;;;;;;;-146.38;100.00;60817.44;985887;30;20373;-48
2021/01/24 00:48:34;;;;;;;13.15;8.85;;;;;;;-146.38;100.00;60817.44;985813;30;20074;-47
2021/01/24 00:50:04;;;;;;;9.07;6.13;;;;;;;-146.38;100.00;60817.44;985612;30;20035;-47
2021/01/24 00:51:33;;;;;;;10.55;7.75;;;;;;;-146.38;100.00;60817.44;985798;30;20028;-49
2021/01/24 00:53:02;;;;;;;11.82;7.55;;;;;;;-146.38;100.00;60817.44;986019;30;20111;-50
2021/01/24 00:54:31;;;;;;;10.25;7.10;;;;;;;-146.38;100.00;60817.44;986052;30;20397;-48
2021/01/24 00:56:00;;;;;;;10.80;7.53;;;;;;;-146.38;100.00;60817.44;986181;30;20117;-46
2021/01/24 00:57:29;;;;;;;10.30;7.20;;;;;;;-146.38;100.00;60817.44;986328;30;20031;-47
2021/01/24 00:58:58;;;;;;;10.80;6.45;;;;;;;-146.38;100.00;60817.44;985737;30;20035;-48
2021/01/24 01:00:27;;;;;;;9.30;7.07;;;;;;;-146.38;100.00;60817.44;985639;30;20035;-47
2021/01/24 01:01:56;;;;;;;7.97;6.32;;;;;;;-146.38;100.00;60817.44;986037;30;20358;-51
2021/01/24 01:03:26;;;;;;;10.88;6.85;;;;;;;-146.38;100.00;60817.44;985600;30;20036;-50
2021/01/24 01:04:55;;;;;;;9.75;7.20;;;;;;;-146.38;100.00;60817.44;985922;30;20091;-47
2021/01/24 01:06:23;;;;;;;9.13;6.57;;;;;;;-146.38;100.00;60817.44;985989;30;20043;-48
2021/01/24 01:07:52;;;;;;;9.73;7.30;;;;;;;-146.38;100.00;60817.44;985880;30;20036;-47
2021/01/24 01:09:21;;;;;;;9.52;7.40;;;;;;;-146.38;100.00;60817.44;985849;30;20102;-47
2021/01/24 01:10:50;;;;;;;8.10;6.38;;;;;;;-146.38;100.00;60817.44;985911;30;20047;-48
2021/01/24 01:12:19;;;;;;;7.95;6.03;;;;;;;-146.38;100.00;60817.44;985906;30;20385;-47
2021/01/24 01:13:48;;;;;;;6.28;5.05;;;;;;;-146.38;100.00;60817.44;985986;30;20147;-51
2021/01/24 01:15:17;;;;;;;7.35;4.55;;;;;;;-146.38;100.00;60817.44;985922;30;20315;-49
2021/01/24 01:16:46;;;;;;;6.03;3.45;;;;;;;-146.38;100.00;60817.44;982123;30;20095;-48
2021/01/24 01:18:15;;;;;;;5.38;3.10;;;;;;;-146.38;100.00;60817.44;982093;30;20024;-49
2021/01/24 01:19:44;;;;;;;4.93;2.90;;;;;;;-146.38;100.00;60817.44;985970;30;20123;-49
2021/01/24 01:21:13;;;;;;;3.30;2.53;;;;;;;-146.38;100.00;60817.44;985527;30;20036;-52
2021/01/24 01:22:42;;;;;;;3.78;2.70;;;;;;;-146.38;100.00;60817.44;985760;30;20040;-50
2021/01/24 01:24:11;;;;;;;3.58;2.50;;;;;;;-146.38;100.00;60817.44;985660;30;20032;-50
2021/01/24 01:25:40;;;;;;;3.83;2.72;;;;;;;-146.38;100.00;60817.44;985890;30;20043;-46
2021/01/24 01:27:11;;;;;;;3.92;2.50;;;;;;;-146.38;100.00;60817.44;986009;30;20079;-48
2021/01/24 01:28:40;;;;;;;3.88;2.70;;;;;;;-146.38;100.00;60817.44;986024;30;20038;-47
2021/01/24 01:30:09;;;;;;;3.83;2.50;;;;;;;-146.38;100.00;60817.44;986062;30;20032;-49
2021/01/24 01:31:38;;;;;;;3.80;2.63;;;;;;;-146.38;100.00;60817.44;985997;30;20031;-49
2021/01/24 01:33:07;;;;;;;3.80;2.58;;;;;;;-146.38;100.00;60817.44;985946;30;20031;-48
2021/01/24 01:34:36;;;;;;;3.25;2.35;;;;;;;-146.38;100.00;60817.44;985872;30;20038;-46
2021/01/24 01:36:05;;;;;;;3.53;2.50;;;;;;;-146.38;100.00;60817.44;985954;30;20041;-47
2021/01/24 01:37:34;;;;;;;3.28;2.30;;;;;;;-146.38;100.00;60817.44;985874;30;20110;-48
2021/01/24 01:39:03;;;;;;;4.13;2.50;;;;;;;-146.38;100.00;60817.44;985952;30;20389;-46
2021/01/24 01:40:32;;;;;;;4.28;3.00;;;;;;;-146.38;100.00;60817.44;985944;30;20350;-47
2021/01/24 01:42:01;;;;;;;3.85;2.60;;;;;;;-146.38;100.00;60817.44;985834;30;20038;-48
2021/01/24 01:43:30;;;;;;;3.40;2.50;;;;;;;-146.38;100.00;60817.44;985906;30;20031;-48
2021/01/24 01:45:00;;;;;;;4.35;3.08;;;;;;;-146.38;100.00;60817.44;985898;30;20165;-47
2021/01/24 01:46:29;;;;;;;3.83;2.80;;;;;;;-146.38;100.00;60817.44;985856;30;20063;-49
2021/01/24 01:47:58;;;;;;;3.80;2.90;;;;;;;-146.38;100.00;60817.44;985758;30;20061;-47
2021/01/24 01:49:27;;;;;;;4.40;2.55;;;;;;;-146.38;100.00;60817.44;985617;30;20436;-48
2021/01/24 01:50:56;;;;;;;3.75;2.90;;;;;;;-146.38;100.00;60817.44;982018;30;20114;-49
2021/01/24 01:52:28;;;;;;;3.50;2.75;;;;;;;-146.38;100.00;60817.44;985668;30;20062;-47
2021/01/24 01:53:58;;;;;;;4.03;2.60;;;;;;;-146.38;100.00;60817.44;985657;30;20077;-47
2021/01/24 01:55:27;;;;;;;3.78;2.80;;;;;;;-146.38;100.00;60817.44;985636;30;20031;-47
2021/01/24 01:56:56;;;;;;;4.63;2.72;;;;;;;-146.38;100.00;60817.44;981843;30;20020;-47
2021/01/24 01:58:25;;;;;;;4.35;2.80;;;;;;;-146.38;100.00;60817.44;985530;30;20042;-47
2021/01/24 01:59:54;;;;;;;4.57;2.50;;;;;;;-146.38;100.00;60817.44;985555;30;20132;-47
2021/01/24 02:01:25;;;;;;;4.40;2.58;;;;;;;-146.38;100.00;60817.44;985952;30;20115;-47
2021/01/24 02:03:16;;;;;;;3.30;2.47;;;;;;;-146.38;100.00;60817.44;986118;30;20059;-49
2021/01/24 02:04:53;;;;;;;4.68;2.70;;;;;;;-146.38;100.00;60817.44;985676;30;20039;-47
2021/01/24 02:06:44;;;;;;;3.55;2.58;;;;;;;-146.38;100.00;60817.44;982612;30;20032;-48
2021/01/24 02:08:35;;;;;;;3.35;2.60;;;;;;;-146.38;100.00;60817.44;985913;30;20494;-47
2021/01/24 02:10:17;;;;;;;3.65;2.65;;;;;;;-146.38;100.00;60817.44;985687;30;20072;-49
2021/01/24 02:12:01;;;;;;;4.25;2.90;;;;;;;-146.38;100.00;60817.44;985635;30;20105;-47
2021/01/24 02:14:06;;;;;;;4.10;2.67;;;;;;;-146.38;100.00;60817.44;985612;30;20036;-47
2021/01/24 02:15:38;;;;;;;3.17;2.60;;;;;;;-146.38;100.00;60817.44;981838;30;20493;-52
2021/01/24 02:17:09;;;;;;;4.07;2.80;;;;;;;-146.38;100.00;60817.44;978894;30;20044;-50
2021/01/24 02:18:40;;;;;;;6.22;2.90;;;;;;;-146.38;100.00;60817.44;985586;30;20032;-52
2021/01/24 02:20:32;;;;;;;3.90;2.90;;;;;;;-146.38;100.00;60817.44;978312;30;20029;-52
2021/01/24 02:22:03;;;;;;;3.38;2.70;;;;;;;-146.38;100.00;60817.44;984504;30;20093;-51
2021/01/24 02:23:33;;;;;;;;;;;;;;;-146.38;100.00;60817.44;978865;30;20387;-50
2021/01/24 02:25:23;;;;;;;3.67;2.85;;;;;;;-146.38;100.00;60817.44;981915;30;19918;-47
2021/01/24 02:27:03;;;;;;;3.78;2.70;;;;;;;-146.38;100.00;60817.44;973770;30;20049;-48
2021/01/24 02:28:40;;;;;;;3.90;2.90;;;;;;;-146.38;100.00;60817.44;986165;30;20035;-47
2021/01/24 02:30:21;;;;;;;4.85;2.63;;;;;;;-146.38;100.00;60817.44;986343;30;20119;-48
2021/01/24 02:31:50;;;;;;;4.18;2.63;;;;;;;-146.38;100.00;60817.44;986430;30;20032;-52
2021/01/24 02:33:19;;;;;;;3.45;2.88;;;;;;;-146.38;100.00;60817.44;986472;30;20138;-47
2021/01/24 02:34:48;;;;;;;3.80;2.65;;;;;;;-146.38;100.00;60817.44;986201;30;20385;-49
2021/01/24 02:36:17;;;;;;;5.57;2.40;;;;;;;-146.38;100.00;60817.44;982503;30;20429;-51
2021/01/24 02:37:46;;;;;;;4.47;2.63;;;;;;;-146.38;100.00;60817.44;978759;30;20048;-48
2021/01/24 02:39:14;;;;;;;3.17;2.33;;;;;;;-146.38;100.00;60817.44;982544;30;20051;-51
2021/01/24 02:40:43;;;;;;;3.00;2.38;;;;;;;-146.38;100.00;60817.44;978785;30;20037;-51
2021/01/24 02:42:13;;;;;;;3.65;2.70;;;;;;;-146.38;100.00;60817.44;982559;30;20036;-48
2021/01/24 02:43:44;;;;;;;4.72;2.70;;;;;;;-146.38;100.00;60817.44;986133;30;20038;-48
2021/01/24 02:45:13;;;;;;;3.63;2.70;;;;;;;-146.38;100.00;60817.44;978811;30;20121;-49
2021/01/24 02:46:43;;;;;;;3.58;2.58;;;;;;;-146.38;100.00;60817.44;982685;30;20028;-53
2021/01/24 02:48:12;;;;;;;3.35;2.45;;;;;;;-146.38;100.00;60817.44;986323;30;20032;-47
2021/01/24 02:49:44;;;;;;;3.25;2.80;;;;;;;-146.38;100.00;60817.44;986172;30;20031;-47
2021/01/24 02:51:13;;;;;;;3.38;2.53;;;;;;;-146.38;100.00;60817.44;982548;30;20044;-48
2021/01/24 02:52:42;;;;;;;3.17;2.35;;;;;;;-146.38;100.00;60817.44;982502;30;20077;-47
2021/01/24 02:54:11;;;;;;;4.60;2.35;;;;;;;-146.38;100.00;60817.44;982601;30;20036;-48
2021/01/24 02:55:40;;;;;;;3.30;2.35;;;;;;;-146.38;100.00;60817.44;986060;30;20043;-48
2021/01/24 02:57:09;;;;;;;3.65;2.30;;;;;;;-146.38;100.00;60817.44;986009;30;20032;-47
2021/01/24 02:58:38;;;;;;;3.50;2.38;;;;;;;-146.38;100.00;60817.44;986136;30;20126;-49
2021/01/24 03:00:08;;;;;;;3.47;2.25;;;;;;;-146.38;100.00;60817.44;982417;30;20504;-49
2021/01/24 03:01:37;;;;;;;3.22;2.55;;;;;;;-146.38;100.00;60817.44;986071;30;20066;-50
2021/01/24 03:03:06;;;;;;;3.60;2.30;;;;;;;-146.38;100.00;60817.44;986146;30;20036;-51
2021/01/24 03:04:35;;;;;;;3.50;2.40;;;;;;;-146.38;100.00;60817.44;985985;30;20032;-51
2021/01/24 03:06:04;;;;;;;4.75;2.50;;;;;;;-146.38;100.00;60817.44;986371;30;20035;-49
2021/01/24 03:07:33;;;;;;;3.53;2.40;;;;;;;-146.38;100.00;60817.44;986294;30;20443;-50
2021/01/24 03:09:03;;;;;;;3.35;2.38;;;;;;;-146.38;100.00;60817.44;982330;30;20036;-50
2021/01/24 03:10:32;;;;;;;3.00;2.30;;;;;;;-146.38;100.00;60817.44;978740;30;20120;-50
2021/01/24 03:12:01;;;;;;;3.13;2.13;;;;;;;-146.38;100.00;60817.44;985867;30;20064;-48
2021/01/24 03:13:55;;;;;;;3.88;2.30;;;;;;;-146.38;100.00;60817.44;982438;30;20398;-47
2021/01/24 03:15:24;;;;;;;3.00;2.20;;;;;;;-146.38;100.00;60817.44;986115;30;20412;-46
2021/01/24 03:16:57;;;;;;;2.83;2.05;;;;;;;-146.38;100.00;60817.44;982370;30;20059;-47
2021/01/24 03:18:26;;;;;;;4.63;2.30;;;;;;;-146.38;100.00;60817.44;986276;30;20028;-46
2021/01/24 03:19:55;;;;;;;3.65;2.33;;;;;;;-146.38;100.00;60817.44;982272;30;20052;-46
2021/01/24 03:21:25;;;;;;;3.28;2.13;;;;;;;-146.38;100.00;60817.44;978624;30;20442;-47
2021/01/24 03:22:54;;;;;;;3.88;2.20;;;;;;;-146.38;100.00;60817.44;978713;30;20052;-46
2021/01/24 03:24:23;;;;;;;3.63;2.30;;;;;;;-146.38;100.00;60817.44;986034;30;20074;-47
2021/01/24 03:25:52;;;;;;;4.10;2.28;;;;;;;-146.38;100.00;60817.44;986109;30;20089;-48
2021/01/24 03:27:21;;;;;;;4.63;2.20;;;;;;;-146.38;100.00;60817.44;982258;30;20090;-47
2021/01/24 03:28:50;;;;;;;3.10;2.08;;;;;;;-146.38;100.00;60817.44;978641;30;20065;-47
2021/01/24 03:30:19;;;;;;;3.28;2.20;;;;;;;-146.38;100.00;60817.44;985974;30;20048;-48
2021/01/24 03:31:48;;;;;;;4.18;2.40;;;;;;;-146.38;100.00;60817.44;985885;30;20043;-47
2021/01/24 03:33:17;;;;;;;2.90;2.05;;;;;;;-146.38;100.00;60817.44;986288;30;20490;-47
2021/01/24 03:34:46;;;;;;;4.53;2.30;;;;;;;-146.38;100.00;60817.44;985996;30;20038;-47
2021/01/24 03:36:15;;;;;;;2.78;1.80;;;;;;;-146.38;100.00;60817.44;985944;30;20038;-47
2021/01/24 03:37:45;;;;;;;3.88;2.15;;;;;;;-146.38;100.00;60817.44;985843;30;20034;-49
2021/01/24 03:39:14;;;;;;;3.00;2.20;;;;;;;-146.38;100.00;60817.44;986198;30;20118;-49
2021/01/24 03:40:43;;;;;;;3.25;2.20;;;;;;;-146.38;100.00;60817.44;986366;30;20027;-48
2021/01/24 03:42:11;;;;;;;2.90;1.83;;;;;;;-146.38;100.00;60817.44;986180;30;20028;-46
2021/01/24 03:43:40;;;;;;;3.90;2.30;;;;;;;-146.38;100.00;60817.44;986209;30;20114;-46
2021/01/24 03:45:10;;;;;;;4.07;2.25;;;;;;;-146.38;100.00;60817.44;986021;30;20536;-48
2021/01/24 03:46:39;;;;;;;3.85;2.20;;;;;;;-146.38;100.00;60817.44;986344;30;20153;-48
2021/01/24 03:48:08;;;;;;;3.03;2.15;;;;;;;-146.38;100.00;60817.44;985733;30;20035;-46
2021/01/24 03:49:37;;;;;;;3.25;2.30;;;;;;;-146.38;100.00;60817.44;985981;30;20467;-47
2021/01/24 03:51:06;;;;;;;3.58;2.20;;;;;;;-146.38;100.00;60817.44;986248;30;20036;-47
2021/01/24 03:52:35;;;;;;;2.90;2.00;;;;;;;-146.38;100.00;60817.44;985879;30;20038;-46
2021/01/24 03:54:04;;;;;;;4.22;2.15;;;;;;;-146.38;100.00;60817.44;986255;30;20114;-48
2021/01/24 03:55:33;;;;;;;4.13;2.00;;;;;;;-146.38;100.00;60817.44;986295;30;20104;-51
2021/01/24 03:57:02;;;;;;;4.15;2.10;;;;;;;-146.38;100.00;60817.44;985778;30;20116;-47
2021/01/24 03:58:31;;;;;;;2.80;2.00;;;;;;;-146.38;100.00;60817.44;986013;30;20020;-47
2021/01/24 04:00:00;;;;;;;2.92;2.00;;;;;;;-146.38;100.00;60817.44;986280;30;20027;-49
2021/01/24 04:01:30;;;;;;;3.03;2.10;;;;;;;-146.38;100.00;60817.44;986319;30;20059;-49
2021/01/24 04:02:59;;;;;;;5.70;1.90;;;;;;;-146.38;100.00;60817.44;986361;30;20063;-49
2021/01/24 04:04:28;;;;;;;3.08;1.88;;;;;;;-146.38;100.00;60817.44;985929;30;20389;-52
2021/01/24 04:05:57;;;;;;;4.07;2.17;;;;;;;-146.38;100.00;60817.44;985878;30;20023;-50
2021/01/24 04:07:26;;;;;;;3.90;2.38;;;;;;;-146.38;100.00;60817.44;986384;30;20485;-46
2021/01/24 04:08:55;;;;;;;3.60;1.95;;;;;;;-146.38;100.00;60817.44;986135;30;20405;-50
2021/01/24 04:10:24;;;;;;;2.92;1.90;;;;;;;-146.38;100.00;60817.44;986278;30;20106;-52
2021/01/24 04:11:52;;;;;;;2.80;2.10;;;;;;;-146.38;100.00;60817.44;985955;30;20126;-47
2021/01/24 04:13:22;;;;;;;2.85;2.05;;;;;;;-146.38;100.00;60817.44;986159;30;20119;-47
2021/01/24 04:14:50;;;;;;;3.05;1.90;;;;;;;-146.38;100.00;60817.44;986180;30;20358;-48
2021/01/24 04:16:19;;;;;;;4.32;2.10;;;;;;;-146.38;100.00;60817.44;986138;30;20039;-47
2021/01/24 04:17:48;;;;;;;3.15;1.95;;;;;;;-146.38;100.00;60817.44;985910;30;20376;-51
2021/01/24 04:19:17;;;;;;;2.50;1.80;;;;;;;-146.38;100.00;60817.44;986012;30;20432;-50
2021/01/24 04:20:46;;;;;;;2.50;1.70;;;;;;;-146.38;100.00;60817.44;986123;30;20104;-48
2021/01/24 04:22:15;;;;;;;3.05;1.70;;;;;;;-146.38;100.00;60817.44;986079;30;20031;-51
2021/01/24 04:23:44;;;;;;;2.92;1.67;;;;;;;-146.38;100.00;60817.44;985640;30;20051;-47
2021/01/24 04:25:15;;;;;;;4.43;1.80;;;;;;;-146.38;100.00;60817.44;985833;30;20035;-50
2021/01/24 04:26:44;;;;;;;2.75;1.98;;;;;;;-146.38;100.00;60817.44;985991;30;20035;-50
2021/01/24 04:28:13;;;;;;;3.53;1.83;;;;;;;-146.38;100.00;60817.44;986025;30;20035;-49
2021/01/24 04:29:42;;;;;;;2.60;1.70;;;;;;;-146.38;100.00;60817.44;986418;30;20112;-47
2021/01/24 04:31:11;;;;;;;2.75;1.75;;;;;;;-146.38;100.00;60817.44;986062;30;20031;-50
2021/01/24 04:32:40;;;;;;;3.58;1.80;;;;;;;-146.38;100.00;60817.44;986518;30;20036;-47
2021/01/24 04:34:09;;;;;;;2.50;1.70;;;;;;;-146.38;100.00;60817.44;986060;30;20175;-46
2021/01/24 04:35:38;;;;;;;2.90;1.77;;;;;;;-146.38;100.00;60817.44;986117;30;20119;-49
2021/01/24 04:37:07;;;;;;;2.63;1.80;;;;;;;-146.38;100.00;60817.44;986318;30;20035;-51
2021/01/24 04:38:36;;;;;;;3.20;1.80;;;;;;;-146.38;100.00;60817.44;986034;30;20416;-50
2021/01/24 04:40:05;;;;;;;2.92;1.70;;;;;;;-146.38;100.00;60817.44;985798;30;20055;-46
2021/01/24 04:41:35;;;;;;;3.95;1.92;;;;;;;-146.38;100.00;60817.44;985893;30;20027;-50
2021/01/24 04:43:04;;;;;;;3.00;1.80;;;;;;;-146.38;100.00;60817.44;986073;30;20035;-47
2021/01/24 04:44:33;;;;;;;3.25;1.80;;;;;;;-146.38;100.00;60817.44;982331;30;20513;-48
2021/01/24 04:46:04;;;;;;;2.60;1.70;;;;;;;-146.38;100.00;60817.44;978704;30;20446;-47
2021/01/24 04:47:33;;;;;;;2.83;1.80;;;;;;;-146.38;100.00;60817.44;978654;30;20040;-50
2021/01/24 04:49:03;;;;;;;2.63;1.80;;;;;;;-146.38;100.00;60817.44;981676;30;20032;-48
2021/01/24 04:50:32;;;;;;;2.60;1.60;;;;;;;-146.38;100.00;60817.44;985699;30;20042;-48
2021/01/24 04:52:01;;;;;;;2.90;1.75;;;;;;;-146.38;100.00;60817.44;981977;30;20036;-47
2021/01/24 04:53:30;;;;;;;2.95;2.00;;;;;;;-146.38;100.00;60817.44;985747;30;20104;-47
2021/01/24 04:54:59;;;;;;;2.33;1.58;;;;;;;-146.38;100.00;60817.44;985699;30;20093;-48
2021/01/24 04:56:28;;;;;;;2.40;1.70;;;;;;;-146.38;100.00;60817.44;982132;30;20085;-47
2021/01/24 04:57:57;;;;;;;2.50;1.70;;;;;;;-146.38;100.00;60817.44;985504;30;20429;-46
2021/01/24 04:59:26;;;;;;;3.50;2.00;;;;;;;-146.38;100.00;60817.44;986028;30;20035;-47
2021/01/24 05:00:55;;;;;;;2.75;1.80;;;;;;;-146.38;100.00;60817.44;986182;30;20032;-47
2021/01/24 05:02:24;;;;;;;2.70;1.70;;;;;;;-146.38;100.00;60817.44;985639;30;20093;-47
2021/01/24 05:03:53;;;;;;;2.85;1.60;;;;;;;-146.38;100.00;60817.44;978358;30;20037;-47
2021/01/24 05:05:22;;;;;;;3.05;1.70;;;;;;;-146.38;100.00;60817.44;982416;30;20032;-45
2021/01/24 05:06:51;;;;;;;2.50;1.73;;;;;;;-146.38;100.00;60817.44;985698;30;20066;-48
2021/01/24 05:08:21;;;;;;;2.55;1.70;;;;;;;-146.38;100.00;60817.44;985816;30;20035;-47
2021/01/24 05:09:50;;;;;;;2.97;1.92;;;;;;;-146.38;100.00;60817.44;985692;30;20036;-48
2021/01/24 05:11:22;;;;;;;2.42;1.70;;;;;;;-146.38;100.00;60817.44;982058;30;20426;-47
2021/01/24 05:12:51;;;;;;;2.60;1.75;;;;;;;-146.38;100.00;60817.44;985868;30;20039;-46
2021/01/24 05:14:23;;;;;;;2.50;1.90;;;;;;;-146.38;100.00;60817.44;985958;30;20071;-47
2021/01/24 05:15:56;;;;;;;2.80;1.80;;;;;;;-146.38;100.00;60817.44;981847;30;20032;-47
2021/01/24 05:17:25;;;;;;;3.45;1.92;;;;;;;-146.38;100.00;60817.44;978767;30;20071;-47
2021/01/24 05:18:55;;;;;;;3.10;1.98;;;;;;;-146.38;100.00;60817.44;985791;30;20031;-47
2021/01/24 05:20:25;;;;;;;3.47;2.03;;;;;;;-146.38;100.00;60817.44;986073;30;20027;-48
2021/01/24 05:21:56;;;;;;;2.40;1.80;;;;;;;-146.38;100.00;60817.44;985549;30;20031;-48
2021/01/24 05:23:25;;;;;;;2.67;1.98;;;;;;;-146.38;100.00;60817.44;981919;30;20028;-47
2021/01/24 05:24:54;;;;;;;2.90;2.10;;;;;;;-146.38;100.00;60817.44;982216;30;20060;-48
2021/01/24 05:26:25;;;;;;;3.20;1.83;;;;;;;-146.38;100.00;60817.44;982148;30;20070;-46
2021/01/24 05:27:54;;;;;;;3.05;2.03;;;;;;;-146.38;100.00;60817.44;985468;30;20055;-45
2021/01/24 05:29:24;;;;;;;2.97;1.90;;;;;;;-146.38;100.00;60817.44;985710;30;20032;-47
2021/01/24 05:31:03;;;;;;;3.08;1.92;;;;;;;-146.38;100.00;60817.44;985807;30;20110;-47
2021/01/24 05:32:42;;;;;;;3.05;1.80;;;;;;;-146.38;100.00;60817.44;986008;30;20046;-45
2021/01/24 05:34:17;;;;;;;2.97;2.10;;;;;;;-146.38;100.00;60817.44;985704;30;20028;-45
2021/01/24 05:35:47;;;;;;;2.80;1.90;;;;;;;-146.38;100.00;60817.44;986014;30;20058;-45
2021/01/24 05:37:16;;;;;;;2.95;1.95;;;;;;;-146.38;100.00;60817.44;982117;30;20486;-46
2021/01/24 05:38:45;;;;;;;2.97;2.05;;;;;;;-146.38;100.00;60817.44;985640;30;20426;-46
2021/01/24 05:40:14;;;;;;;4.53;1.95;;;;;;;-146.38;100.00;60817.44;985961;30;20093;-47
2021/01/24 05:41:46;;;;;;;2.90;1.90;;;;;;;-146.38;100.00;60817.44;986075;30;20129;-47
2021/01/24 05:43:16;;;;;;;2.50;1.77;;;;;;;-146.38;100.00;60817.44;985539;30;20099;-48
2021/01/24 05:44:47;;;;;;;3.03;1.90;;;;;;;-146.38;100.00;60817.44;985663;30;20027;-50
2021/01/24 05:46:16;;;;;;;3.40;1.90;;;;;;;-146.38;100.00;60817.44;986299;30;20040;-47
2021/01/24 05:47:46;;;;;;;2.80;1.90;;;;;;;-146.38;100.00;60817.44;985385;30;20110;-45
2021/01/24 05:49:31;;;;;;;2.45;1.70;;;;;;;-146.38;100.00;60817.44;985799;30;20038;-47
2021/01/24 05:51:01;;;;;;;3.40;1.70;;;;;;;-146.38;100.00;60817.44;985962;30;20027;-46
2021/01/24 05:52:29;;;;;;;2.40;1.70;;;;;;;-146.38;100.00;60817.44;985732;30;20105;-46
2021/01/24 05:54:01;;;;;;;2.70;2.00;;;;;;;-146.38;100.00;60817.44;985715;30;20036;-46
2021/01/24 05:55:43;;;;;;;3.45;2.05;;;;;;;-146.38;100.00;60817.44;985700;30;20145;-47
2021/01/24 05:57:18;;;;;;;3.28;1.95;;;;;;;-146.38;100.00;60817.44;985799;30;20028;-46
2021/01/24 05:58:57;;;;;;;3.20;2.05;;;;;;;-146.38;100.00;60817.44;982398;30;20506;-46
2021/01/24 06:00:26;;;;;;;2.88;2.00;;;;;;;-146.38;100.00;60817.44;985933;30;20023;-46
2021/01/24 06:01:55;;;;;;;3.80;1.90;;;;;;;-146.38;100.00;60817.44;986337;30;20194;-46
2021/01/24 06:03:24;;;;;;;3.53;2.20;;;;;;;-146.38;100.00;60817.44;979036;30;20032;-46
2021/01/24 06:04:55;;;;;;;3.53;2.10;;;;;;;-146.38;100.00;60817.44;982642;30;20070;-45
2021/01/24 06:06:24;;;;;;;;;;;;;;;-146.38;100.00;60817.44;986807;30;20119;-46
2021/01/24 06:07:55;;;;;;;3.00;2.30;;;;;;;-146.38;100.00;60817.44;986250;30;19989;-46
2021/01/24 06:09:24;;;;;;;3.90;2.40;;;;;;;-146.38;100.00;60817.44;986714;30;20051;-46
2021/01/24 06:10:53;;;;;;;3.00;2.30;;;;;;;-146.38;100.00;60817.44;986503;30;20089;-46
2021/01/24 06:12:22;;;;;;;3.35;2.40;;;;;;;-146.38;100.00;60817.44;986613;30;20097;-46
2021/01/24 06:13:53;;;;;;;5.03;2.85;;;;;;;-146.38;100.00;60817.44;986231;30;20024;-47
2021/01/24 06:15:22;;;;;;;4.57;2.70;;;;;;;-146.38;100.00;60817.44;982729;30;20035;-46
2021/01/24 06:16:52;;;;;;;5.03;3.03;;;;;;;-146.38;100.00;60817.44;979036;30;20478;-46
2021/01/24 06:18:32;;;;;;;5.28;3.00;;;;;;;-146.38;100.00;60817.44;986275;30;20069;-46
2021/01/24 06:20:02;;;;;;;4.45;2.58;;;;;;;-146.38;100.00;60817.44;986907;30;20079;-51
2021/01/24 06:21:33;;;;;;;3.50;2.40;;;;;;;-146.38;100.00;60817.44;986631;30;20366;-47
2021/01/24 06:23:07;;;;;;;6.47;2.47;;;;;;;-146.38;100.00;60817.44;982838;30;20074;-47
2021/01/24 06:24:41;;;;;;;3.38;2.33;;;;;;;-146.38;100.00;60817.44;979665;30;20037;-47
2021/01/24 06:26:18;;;;;;;3.45;2.15;;;;;;;-146.38;100.00;60817.44;983034;30;20032;-47
2021/01/24 06:28:08;;;;;;;3.67;2.05;;;;;;;-146.38;100.00;60817.44;982473;30;20063;-46
2021/01/24 06:29:41;;;;;;;3.40;2.30;;;;;;;-146.38;100.00;60817.44;986062;30;20047;-48
2021/01/24 06:31:11;;;;;;;3.60;2.20;;;;;;;-146.38;100.00;60817.44;986655;30;20057;-50
2021/01/24 06:32:44;;;;;;;2.83;1.88;;;;;;;-146.38;100.00;60817.44;986666;30;20027;-47
2021/01/24 06:34:35;;;;;;;6.18;2.17;;;;;;;-146.38;100.00;60817.44;986433;30;20099;-48
2021/01/24 06:36:23;;;;;;;3.38;2.80;;;;;;;-146.38;100.00;60817.44;986492;30;20525;-48
2021/01/24 06:38:04;;;;;;;3.05;2.17;;;;;;;-146.38;100.00;60817.44;986558;30;20032;-48
2021/01/24 06:39:42;;;;;;;;;;;;;;;-146.38;100.00;60817.44;987182;30;20038;-47
2021/01/24 06:41:43;;;;;;;3.90;2.55;;;;;;;-146.38;100.00;60817.44;986581;30;20263;-49
2021/01/24 06:43:36;;;;;;;6.57;2.55;;;;;;;-146.38;100.00;60817.44;986803;30;20339;-48
2021/01/24 06:45:25;;;;;;;3.45;2.30;;;;;;;-146.38;100.00;60817.44;986289;30;20058;-48
2021/01/24 06:46:54;;;;;;;3.33;2.40;;;;;;;-146.38;100.00;60817.44;986713;30;20084;-47
2021/01/24 06:48:39;;;;;;;3.08;2.30;;;;;;;-146.38;100.00;60817.44;986720;30;20474;-48
2021/01/24 06:50:26;;;;;;;3.88;2.50;;;;;;;-146.38;100.00;60817.44;986745;30;20059;-48
2021/01/24 06:51:55;;;;;;;4.38;2.60;;;;;;;-146.38;100.00;60817.44;986083;30;20030;-47
2021/01/24 06:53:26;;;;;;;3.53;2.40;;;;;;;-146.38;100.00;60817.44;986109;30;20028;-46
2021/01/24 06:54:55;;;;;;;3.85;2.72;;;;;;;-146.38;100.00;60817.44;982840;30;20035;-46
2021/01/24 06:56:26;;;;;;;3.47;2.30;;;;;;;-146.38;100.00;60817.44;986719;30;20273;-46
2021/01/24 06:58:22;;;;;;;3.38;2.40;;;;;;;-146.38;100.00;60817.44;986502;30;20092;-46
2021/01/24 06:59:51;;;;;;;5.05;2.53;;;;;;;-146.38;100.00;60817.44;986700;30;20555;-47